Time;durP1;ratioP1;P1;durP2;ratioP2;P2;SDS_P1;SDS_P2;PMS_P1;PMS_P2;Temp;Humidity;BMP_temperature;BMP_pressure;BME280_temperature;BME280_humidity;BME280_pressure;Samples;Min_cycle;Max_cycle;Signal;HPM_P1;HPM_P2
2022/09/17 00:00:37;;;;;;;0.00;0.00;;;10.50;99.90;;;;;;5043003;28;20186;-67
2022/09/17 00:03:04;;;;;;;0.00;0.00;;;10.60;99.90;;;;;;5033969;28;20218;-67
2022/09/17 00:05:29;;;;;;;0.00;0.00;;;10.60;99.90;;;;;;5048456;28;20601;-67
2022/09/17 00:07:55;;;;;;;0.00;0.00;;;10.60;99.90;;;;;;5049900;28;20188;-66
2022/09/17 00:10:22;;;;;;;0.00;0.00;;;10.70;99.90;;;;;;5040411;28;20209;-67
2022/09/17 00:12:48;;;;;;;0.00;0.00;;;10.70;99.90;;;;;;5048981;28;20233;-67
2022/09/17 00:15:13;;;;;;;0.00;0.00;;;10.70;99.90;;;;;;5043612;28;20328;-67
2022/09/17 00:17:40;;;;;;;0.00;0.00;;;10.70;99.90;;;;;;5044104;28;20181;-67
2022/09/17 00:20:10;;;;;;;0.00;0.00;;;10.70;99.90;;;;;;5038795;28;20187;-67
2022/09/17 00:22:37;;;;;;;0.00;0.00;;;10.60;99.90;;;;;;5033004;28;20188;-67
2022/09/17 00:25:04;;;;;;;0.05;0.05;;;10.50;99.90;;;;;;5031795;28;20190;-67
2022/09/17 00:27:29;;;;;;;0.00;0.00;;;10.50;99.90;;;;;;5042837;28;20287;-67
2022/09/17 00:29:55;;;;;;;0.00;0.00;;;10.50;99.90;;;;;;5050709;28;20191;-67
2022/09/17 00:32:20;;;;;;;0.00;0.00;;;10.50;99.90;;;;;;5050649;28;20185;-67
2022/09/17 00:34:47;;;;;;;0.00;0.00;;;10.50;99.90;;;;;;5033484;28;20178;-67
2022/09/17 00:37:13;;;;;;;0.00;0.00;;;10.50;99.90;;;;;;5048663;28;20193;-67
2022/09/17 00:39:39;;;;;;;0.00;0.00;;;10.40;99.90;;;;;;5045684;28;20183;-67
2022/09/17 00:42:09;;;;;;;0.00;0.00;;;10.40;99.90;;;;;;5048373;28;20196;-67
2022/09/17 00:44:51;;;;;;;0.00;0.00;;;10.40;99.90;;;;;;5045115;28;20260;-67
2022/09/17 00:47:26;;;;;;;0.00;0.00;;;10.30;99.90;;;;;;5038594;28;20189;-67
2022/09/17 00:49:58;;;;;;;0.00;0.00;;;10.30;99.90;;;;;;5036873;28;20641;-67
2022/09/17 00:52:29;;;;;;;0.00;0.00;;;10.30;99.90;;;;;;5041546;28;20182;-67
2022/09/17 00:55:26;;;;;;;0.00;0.00;;;10.30;99.90;;;;;;5042633;28;20170;-67
2022/09/17 00:57:55;;;;;;;0.00;0.00;;;10.30;99.90;;;;;;5037512;28;20193;-67
2022/09/17 01:00:21;;;;;;;0.00;0.00;;;10.30;99.90;;;;;;5033650;28;20192;-67
2022/09/17 01:02:47;;;;;;;0.00;0.00;;;10.30;99.90;;;;;;5044246;28;20363;-67
2022/09/17 01:05:14;;;;;;;0.00;0.00;;;10.30;99.90;;;;;;5050551;28;20323;-66
2022/09/17 01:08:06;;;;;;;0.00;0.00;;;10.30;99.90;;;;;;5050553;28;20193;-67
2022/09/17 01:11:08;;;;;;;0.00;0.00;;;10.30;99.90;;;;;;5021138;28;20213;-67
2022/09/17 01:14:10;;;;;;;0.00;0.00;;;10.40;99.90;;;;;;5042364;28;20174;-67
2022/09/17 01:16:51;;;;;;;0.00;0.00;;;10.40;99.90;;;;;;5039480;28;20251;-67
2022/09/17 01:19:36;;;;;;;0.00;0.00;;;10.40;99.90;;;;;;5029254;28;20193;-67
2022/09/17 01:22:28;;;;;;;0.08;0.08;;;10.40;99.90;;;;;;5035484;28;20177;-67
2022/09/17 01:25:12;;;;;;;0.00;0.00;;;10.40;99.90;;;;;;5046373;28;20493;-67
2022/09/17 01:28:05;;;;;;;0.00;0.00;;;10.30;99.90;;;;;;5047412;28;20186;-67
2022/09/17 01:30:43;;;;;;;0.00;0.00;;;10.30;99.90;;;;;;5028114;28;20687;-67
2022/09/17 01:33:25;;;;;;;0.00;0.00;;;10.20;99.90;;;;;;5040537;28;20189;-67
2022/09/17 01:36:13;;;;;;;0.00;0.00;;;10.20;99.90;;;;;;5044815;28;20544;-67
2022/09/17 01:38:51;;;;;;;0.00;0.00;;;10.20;99.90;;;;;;5048979;28;20193;-67
2022/09/17 01:41:42;;;;;;;0.00;0.00;;;10.20;99.90;;;;;;5028306;28;20269;-67
2022/09/17 01:44:18;;;;;;;0.00;0.00;;;10.20;99.90;;;;;;5035982;28;20683;-68
2022/09/17 01:47:07;;;;;;;0.20;0.20;;;10.20;99.90;;;;;;5028347;28;20269;-67
2022/09/17 01:49:36;;;;;;;0.00;0.00;;;10.20;99.90;;;;;;5033391;28;20699;-67
2022/09/17 01:52:04;;;;;;;0.00;0.00;;;10.20;99.90;;;;;;5041277;28;20214;-67
2022/09/17 01:54:48;;;;;;;0.00;0.00;;;10.20;99.90;;;;;;5031224;28;20680;-67
2022/09/17 01:57:24;;;;;;;0.00;0.00;;;10.20;99.90;;;;;;5034547;28;20216;-67
2022/09/17 02:00:08;;;;;;;0.00;0.00;;;10.20;99.90;;;;;;5040411;28;20184;-67
2022/09/17 02:02:40;;;;;;;0.00;0.00;;;10.10;99.90;;;;;;5048432;28;20256;-67
2022/09/17 02:05:10;;;;;;;0.00;0.00;;;10.10;99.90;;;;;;5053215;28;20280;-67
2022/09/17 02:07:48;;;;;;;0.25;0.25;;;10.10;99.90;;;;;;5048156;28;20208;-67
2022/09/17 02:10:18;;;;;;;0.00;0.00;;;10.10;99.90;;;;;;5036295;28;20213;-67
2022/09/17 02:12:52;;;;;;;0.00;0.00;;;10.10;99.90;;;;;;5051023;28;20567;-67
2022/09/17 02:15:24;;;;;;;0.00;0.00;;;10.10;99.90;;;;;;5038509;28;20531;-67
2022/09/17 02:18:49;;;;;;;0.00;0.00;;;10.00;99.90;;;;;;5046727;28;20186;-67
2022/09/17 02:21:23;;;;;;;0.00;0.00;;;10.00;99.90;;;;;;4992744;28;20696;-67
2022/09/17 02:24:18;;;;;;;0.00;0.00;;;10.00;99.90;;;;;;4992947;28;20179;-67
2022/09/17 02:26:59;;;;;;;0.00;0.00;;;10.00;99.90;;;;;;5028385;28;20517;-67
2022/09/17 02:29:34;;;;;;;0.00;0.00;;;10.00;99.90;;;;;;5041089;28;20224;-67
2022/09/17 02:32:00;;;;;;;0.00;0.00;;;10.00;99.90;;;;;;5037626;28;20216;-67
2022/09/17 02:34:28;;;;;;;0.00;0.00;;;9.90;99.90;;;;;;5044152;28;20189;-67
2022/09/17 02:36:54;;;;;;;0.00;0.00;;;10.00;99.90;;;;;;5047439;28;20180;-67
2022/09/17 02:39:20;;;;;;;0.17;0.17;;;9.90;99.90;;;;;;5038786;28;20177;-67
2022/09/17 02:42:16;;;;;;;0.00;0.00;;;9.90;99.90;;;;;;5051783;28;20177;-67
2022/09/17 02:45:30;;;;;;;0.00;0.00;;;9.90;99.90;;;;;;5036916;28;20178;-67
2022/09/17 02:48:08;;;;;;;0.00;0.00;;;9.90;99.90;;;;;;5045663;28;20181;-66
2022/09/17 02:50:58;;;;;;;0.00;0.00;;;9.90;99.90;;;;;;5047296;28;20220;-66
2022/09/17 02:53:41;;;;;;;0.00;0.00;;;9.90;99.90;;;;;;5045833;28;20249;-66
2022/09/17 02:56:26;;;;;;;0.00;0.00;;;9.90;99.90;;;;;;5043139;28;20645;-67
2022/09/17 02:59:15;;;;;;;0.00;0.00;;;9.80;99.90;;;;;;5041433;28;20190;-67
2022/09/17 03:02:04;;;;;;;0.10;0.10;;;9.70;99.90;;;;;;5038398;28;20607;-66
2022/09/17 03:04:32;;;;;;;0.00;0.00;;;9.70;99.90;;;;;;5048664;28;20629;-66
2022/09/17 03:06:59;;;;;;;0.00;0.00;;;9.60;99.90;;;;;;5042847;28;20170;-67
2022/09/17 03:09:25;;;;;;;0.00;0.00;;;9.60;99.90;;;;;;5038375;28;20209;-66
2022/09/17 03:11:51;;;;;;;0.10;0.10;;;9.60;99.90;;;;;;5043864;28;20218;-66
2022/09/17 03:14:19;;;;;;;0.00;0.00;;;9.50;99.90;;;;;;5037206;28;20255;-66
2022/09/17 03:16:45;;;;;;;0.00;0.00;;;9.50;99.90;;;;;;5039784;28;20177;-66
2022/09/17 03:19:10;;;;;;;0.00;0.00;;;9.50;99.90;;;;;;5042386;28;20197;-66
2022/09/17 03:21:36;;;;;;;0.00;0.00;;;9.40;99.90;;;;;;5036943;28;20186;-66
2022/09/17 03:24:01;;;;;;;0.00;0.00;;;9.50;99.90;;;;;;5043454;28;20190;-66
2022/09/17 03:26:27;;;;;;;0.00;0.00;;;9.40;99.90;;;;;;5035476;28;20654;-66
2022/09/17 03:28:52;;;;;;;0.00;0.00;;;9.50;99.90;;;;;;5037611;28;20637;-66
2022/09/17 03:31:18;;;;;;;0.00;0.00;;;9.50;99.90;;;;;;5034436;28;20735;-66
2022/09/17 03:33:43;;;;;;;0.00;0.00;;;9.50;99.90;;;;;;5040226;28;20182;-67
2022/09/17 03:36:09;;;;;;;0.00;0.00;;;9.50;99.90;;;;;;5039147;28;20182;-67
2022/09/17 03:38:37;;;;;;;0.00;0.00;;;9.40;99.90;;;;;;5048840;28;20633;-66
2022/09/17 03:41:05;;;;;;;0.00;0.00;;;9.40;99.90;;;;;;5047736;28;20516;-66
2022/09/17 03:43:31;;;;;;;0.00;0.00;;;9.40;99.90;;;;;;5047640;28;20256;-66
2022/09/17 03:45:57;;;;;;;0.17;0.05;;;9.40;99.90;;;;;;5042991;28;20276;-66
2022/09/17 03:48:23;;;;;;;0.03;0.03;;;9.40;99.90;;;;;;5034500;28;20264;-66
2022/09/17 03:50:48;;;;;;;0.00;0.00;;;9.30;99.90;;;;;;5032460;28;20264;-66
2022/09/17 03:53:14;;;;;;;0.00;0.00;;;9.30;99.90;;;;;;5046041;28;20185;-66
2022/09/17 03:55:40;;;;;;;0.00;0.00;;;9.30;99.90;;;;;;5051120;28;20174;-66
2022/09/17 03:58:06;;;;;;;0.00;0.00;;;9.30;99.90;;;;;;5039922;28;20202;-66
2022/09/17 04:00:32;;;;;;;0.00;0.00;;;9.30;99.90;;;;;;5040903;28;20220;-66
2022/09/17 04:02:57;;;;;;;0.00;0.00;;;9.30;99.90;;;;;;5039162;28;20261;-66
2022/09/17 04:05:23;;;;;;;0.00;0.00;;;9.20;99.90;;;;;;5043736;28;20181;-66
2022/09/17 04:07:48;;;;;;;0.00;0.00;;;9.20;99.90;;;;;;5051413;28;20181;-66
2022/09/17 04:10:14;;;;;;;0.00;0.00;;;9.20;99.90;;;;;;5037326;28;20708;-66
2022/09/17 04:12:40;;;;;;;0.08;0.05;;;9.20;99.90;;;;;;5034408;28;20252;-66
2022/09/17 04:15:06;;;;;;;0.00;0.00;;;9.20;99.90;;;;;;5049324;28;20702;-66
2022/09/17 04:17:32;;;;;;;0.00;0.00;;;9.30;99.90;;;;;;5049693;28;20189;-66
2022/09/17 04:19:57;;;;;;;0.00;0.00;;;9.30;99.90;;;;;;5046700;28;20252;-66
2022/09/17 04:22:23;;;;;;;0.03;0.03;;;9.30;99.90;;;;;;5034947;28;20666;-66
2022/09/17 04:24:49;;;;;;;0.00;0.00;;;9.30;99.90;;;;;;5039837;28;20529;-66
2022/09/17 04:27:14;;;;;;;0.00;0.00;;;9.30;99.90;;;;;;5032776;28;20193;-66
2022/09/17 04:29:40;;;;;;;0.00;0.00;;;9.30;99.90;;;;;;5037926;28;20182;-66
2022/09/17 04:32:06;;;;;;;0.00;0.00;;;9.30;99.90;;;;;;5035863;28;20305;-66
2022/09/17 04:34:32;;;;;;;0.00;0.00;;;9.30;99.90;;;;;;5047307;28;20180;-66
2022/09/17 04:36:57;;;;;;;0.00;0.00;;;9.30;99.90;;;;;;5038195;28;20181;-66
2022/09/17 04:39:23;;;;;;;0.00;0.00;;;9.20;99.90;;;;;;5037873;28;20181;-65
2022/09/17 04:41:48;;;;;;;0.00;0.00;;;9.20;99.90;;;;;;5045961;28;20177;-66
2022/09/17 04:44:14;;;;;;;0.00;0.00;;;9.20;99.90;;;;;;5037221;28;20175;-66
2022/09/17 04:46:39;;;;;;;0.00;0.00;;;9.20;99.90;;;;;;5033820;28;20260;-66
2022/09/17 04:49:05;;;;;;;0.00;0.00;;;9.20;99.90;;;;;;5034498;28;20174;-66
2022/09/17 04:51:30;;;;;;;0.00;0.00;;;9.20;99.90;;;;;;5045718;28;20691;-66
2022/09/17 04:53:56;;;;;;;0.00;0.00;;;9.20;99.90;;;;;;5037277;28;20225;-66
2022/09/17 04:56:21;;;;;;;0.00;0.00;;;9.20;99.90;;;;;;5043644;28;20182;-66
2022/09/17 04:58:47;;;;;;;0.00;0.00;;;9.20;99.90;;;;;;5033652;28;20186;-66
2022/09/17 05:01:13;;;;;;;0.00;0.00;;;9.20;99.90;;;;;;5044689;28;20185;-66
2022/09/17 05:03:39;;;;;;;0.05;0.05;;;9.10;99.90;;;;;;5041854;28;20214;-65
2022/09/17 05:06:05;;;;;;;0.00;0.00;;;9.10;99.90;;;;;;5042215;28;20260;-66
2022/09/17 05:08:30;;;;;;;0.00;0.00;;;9.10;99.90;;;;;;5045452;28;20185;-64
2022/09/17 05:10:56;;;;;;;0.00;0.00;;;9.10;99.90;;;;;;5040081;28;20660;-67
2022/09/17 05:13:22;;;;;;;0.00;0.00;;;9.10;99.90;;;;;;5035664;28;20751;-64
2022/09/17 05:15:48;;;;;;;0.25;0.22;;;9.10;99.90;;;;;;5044157;28;20653;-66
2022/09/17 05:18:13;;;;;;;0.00;0.00;;;9.10;99.90;;;;;;5044204;28;20290;-64
2022/09/17 05:20:39;;;;;;;0.00;0.00;;;9.20;99.90;;;;;;5038944;28;20181;-61
2022/09/17 05:23:04;;;;;;;0.03;0.03;;;9.20;99.90;;;;;;5036020;28;20181;-62
2022/09/17 05:25:31;;;;;;;0.00;0.00;;;9.20;99.90;;;;;;5040129;28;20761;-61
2022/09/17 05:27:57;;;;;;;0.00;0.00;;;9.20;99.90;;;;;;5036355;28;20177;-64
2022/09/17 05:30:23;;;;;;;0.00;0.00;;;9.20;99.90;;;;;;5034845;28;20576;-66
2022/09/17 05:32:48;;;;;;;0.00;0.00;;;9.20;99.90;;;;;;5045049;28;20210;-63
2022/09/17 05:35:14;;;;;;;0.00;0.00;;;9.30;99.90;;;;;;5045233;28;20181;-64
2022/09/17 05:37:40;;;;;;;0.10;0.10;;;9.30;99.90;;;;;;5039037;28;20181;-64
2022/09/17 05:40:07;;;;;;;0.00;0.00;;;9.30;99.90;;;;;;5031852;28;20190;-68
2022/09/17 05:42:33;;;;;;;0.00;0.00;;;9.30;99.90;;;;;;5047486;28;20715;-67
2022/09/17 05:44:58;;;;;;;0.00;0.00;;;9.30;99.90;;;;;;5033334;28;20294;-67
2022/09/17 05:47:25;;;;;;;0.00;0.00;;;9.40;99.90;;;;;;5041001;28;20181;-67
2022/09/17 05:49:50;;;;;;;0.00;0.00;;;9.40;99.90;;;;;;5032779;28;20622;-66
2022/09/17 05:52:16;;;;;;;0.00;0.00;;;9.40;99.90;;;;;;5031350;28;20178;-67
2022/09/17 05:54:42;;;;;;;0.00;0.00;;;9.40;99.90;;;;;;5032708;28;20186;-63
2022/09/17 05:57:07;;;;;;;0.00;0.00;;;9.40;99.90;;;;;;5031423;28;20182;-64
2022/09/17 05:59:34;;;;;;;0.00;0.00;;;9.40;99.90;;;;;;5031464;28;20539;-65
2022/09/17 06:02:00;;;;;;;0.00;0.00;;;9.40;99.90;;;;;;5032651;28;20218;-67
2022/09/17 06:04:25;;;;;;;0.00;0.00;;;9.50;99.90;;;;;;5032577;28;20525;-67
2022/09/17 06:06:51;;;;;;;0.00;0.00;;;9.50;99.90;;;;;;5050802;28;20242;-65
2022/09/17 06:09:16;;;;;;;0.22;0.22;;;9.50;99.90;;;;;;5038916;28;20196;-65
2022/09/17 06:11:42;;;;;;;0.00;0.00;;;9.50;99.90;;;;;;5051073;28;20240;-66
2022/09/17 06:14:08;;;;;;;0.00;0.00;;;9.50;99.90;;;;;;5038599;28;20666;-64
2022/09/17 06:16:34;;;;;;;0.00;0.00;;;9.60;99.90;;;;;;5041754;28;20186;-65
2022/09/17 06:18:59;;;;;;;0.00;0.00;;;9.60;99.90;;;;;;5035625;28;20724;-65
2022/09/17 06:21:25;;;;;;;0.00;0.00;;;9.60;99.90;;;;;;5031042;28;20260;-65
2022/09/17 06:23:51;;;;;;;0.05;0.05;;;9.60;99.90;;;;;;5031203;28;20261;-65
2022/09/17 06:26:17;;;;;;;0.00;0.00;;;9.60;99.90;;;;;;5031037;28;20668;-65
2022/09/17 06:28:43;;;;;;;0.00;0.00;;;9.60;99.90;;;;;;5031087;28;20178;-65
2022/09/17 06:31:10;;;;;;;0.00;0.00;;;9.60;99.90;;;;;;5030892;28;20236;-65
2022/09/17 06:33:36;;;;;;;0.00;0.00;;;9.50;99.90;;;;;;5034900;28;20606;-65
2022/09/17 06:36:03;;;;;;;0.20;0.20;;;9.50;99.90;;;;;;5031260;28;20217;-65
2022/09/17 06:38:31;;;;;;;0.00;0.00;;;9.50;99.90;;;;;;5041751;28;20182;-65
2022/09/17 06:40:57;;;;;;;0.00;0.00;;;9.50;99.90;;;;;;5034874;28;20233;-65
2022/09/17 06:43:23;;;;;;;0.05;0.05;;;9.40;99.90;;;;;;5052141;28;20185;-65
2022/09/17 06:45:53;;;;;;;0.00;0.00;;;9.40;99.90;;;;;;5040763;28;20182;-64
2022/09/17 06:48:20;;;;;;;0.35;0.35;;;9.40;99.90;;;;;;5045817;28;20178;-64
2022/09/17 06:50:45;;;;;;;0.00;0.00;;;9.40;99.90;;;;;;5044897;28;20192;-65
2022/09/17 06:53:11;;;;;;;0.00;0.00;;;9.40;99.90;;;;;;5051586;28;21037;-64
2022/09/17 06:55:36;;;;;;;0.00;0.00;;;9.40;99.90;;;;;;5032377;28;20189;-64
2022/09/17 06:58:02;;;;;;;0.00;0.00;;;9.40;99.90;;;;;;5043936;28;20175;-64
2022/09/17 07:00:27;;;;;;;0.03;0.03;;;9.50;99.90;;;;;;5022867;28;20793;-64
2022/09/17 07:02:57;;;;;;;0.00;0.00;;;9.50;99.90;;;;;;5041063;28;20233;-64
2022/09/17 07:05:23;;;;;;;0.00;0.00;;;9.60;99.90;;;;;;5045916;28;20331;-65
2022/09/17 07:07:49;;;;;;;0.10;0.10;;;9.70;99.90;;;;;;5036286;28;20534;-65
2022/09/17 07:10:15;;;;;;;0.00;0.00;;;9.70;99.90;;;;;;5040090;28;20269;-65
2022/09/17 07:12:41;;;;;;;0.00;0.00;;;9.80;99.90;;;;;;5034711;28;20182;-65
2022/09/17 07:15:09;;;;;;;0.00;0.00;;;9.90;99.90;;;;;;5036397;28;20205;-65
2022/09/17 07:17:35;;;;;;;0.00;0.00;;;9.90;99.90;;;;;;5038652;28;20188;-64
2022/09/17 07:20:00;;;;;;;0.00;0.00;;;9.90;99.90;;;;;;5042356;28;20268;-65
2022/09/17 07:22:26;;;;;;;0.00;0.00;;;9.90;99.90;;;;;;5048232;28;20189;-65
2022/09/17 07:24:51;;;;;;;0.05;0.05;;;9.90;99.90;;;;;;5036972;28;20209;-65
2022/09/17 07:27:17;;;;;;;0.00;0.00;;;9.90;99.90;;;;;;5044209;28;20221;-64
2022/09/17 07:29:42;;;;;;;0.00;0.00;;;9.90;99.90;;;;;;5033611;28;20231;-64
2022/09/17 07:32:08;;;;;;;0.00;0.00;;;10.00;99.90;;;;;;5048435;28;20692;-64
2022/09/17 07:34:33;;;;;;;1.38;0.55;;;10.00;99.90;;;;;;5033599;28;20181;-60
2022/09/17 07:36:59;;;;;;;1.10;0.82;;;10.20;99.90;;;;;;5036687;28;20584;-60
2022/09/17 07:39:24;;;;;;;1.33;1.20;;;10.80;99.90;;;;;;5034568;28;20287;-59
2022/09/17 07:41:50;;;;;;;0.15;0.15;;;11.40;99.90;;;;;;5045311;28;20220;-59
2022/09/17 07:44:16;;;;;;;0.00;0.00;;;12.00;99.90;;;;;;5033612;28;20170;-60
2022/09/17 07:46:41;;;;;;;0.30;0.30;;;12.50;99.90;;;;;;5034735;28;20543;-60
2022/09/17 07:49:07;;;;;;;0.00;0.00;;;13.00;99.90;;;;;;5033223;28;20566;-60
2022/09/17 07:51:32;;;;;;;0.10;0.10;;;13.20;99.90;;;;;;5035671;28;20232;-60
2022/09/17 07:53:58;;;;;;;0.08;0.05;;;13.60;99.90;;;;;;5034637;28;20225;-60
2022/09/17 07:56:25;;;;;;;0.05;0.05;;;14.00;99.90;;;;;;5033167;28;20185;-60
2022/09/17 07:58:52;;;;;;;0.00;0.00;;;14.50;99.90;;;;;;5033021;28;20516;-60
2022/09/17 08:01:19;;;;;;;0.00;0.00;;;14.90;99.90;;;;;;5050354;28;20347;-61
2022/09/17 08:03:51;;;;;;;0.00;0.00;;;15.20;99.90;;;;;;5045395;28;20214;-61
2022/09/17 08:06:19;;;;;;;0.00;0.00;;;15.40;99.90;;;;;;5049482;28;20196;-61
2022/09/17 08:08:45;;;;;;;0.00;0.00;;;15.30;99.90;;;;;;5035882;28;20235;-61
2022/09/17 08:11:13;;;;;;;0.20;0.20;;;15.30;99.90;;;;;;5047198;28;20193;-61
2022/09/17 08:13:39;;;;;;;0.00;0.00;;;15.40;99.90;;;;;;5048277;28;20182;-61
2022/09/17 08:16:07;;;;;;;0.00;0.00;;;15.20;99.90;;;;;;5039567;28;20227;-61
2022/09/17 08:18:34;;;;;;;0.00;0.00;;;15.00;99.90;;;;;;5047315;28;20174;-61
2022/09/17 08:21:02;;;;;;;0.00;0.00;;;14.70;99.90;;;;;;5032570;28;20554;-61
2022/09/17 08:23:29;;;;;;;0.00;0.00;;;14.70;99.90;;;;;;5041117;28;20714;-61
2022/09/17 08:25:57;;;;;;;0.00;0.00;;;14.80;99.90;;;;;;5036222;28;20189;-60
2022/09/17 08:28:24;;;;;;;0.00;0.00;;;14.80;99.90;;;;;;5036614;28;20434;-61
2022/09/17 08:30:51;;;;;;;0.00;0.00;;;14.80;99.90;;;;;;5047123;28;20178;-61
2022/09/17 08:33:16;;;;;;;0.00;0.00;;;14.60;99.90;;;;;;5032729;28;20181;-61
2022/09/17 08:35:52;;;;;;;0.00;0.00;;;14.50;99.90;;;;;;5043513;28;20174;-61
2022/09/17 08:38:18;;;;;;;0.00;0.00;;;14.50;99.90;;;;;;5034826;28;20190;-61
2022/09/17 08:41:14;;;;;;;0.00;0.00;;;14.70;99.90;;;;;;5036582;28;20239;-61
2022/09/17 08:43:51;;;;;;;0.00;0.00;;;14.80;99.90;;;;;;5043300;28;20269;-61
2022/09/17 08:46:16;;;;;;;0.10;0.10;;;14.70;99.90;;;;;;5042337;28;20177;-61
2022/09/17 08:48:46;;;;;;;0.00;0.00;;;14.60;99.90;;;;;;5043951;28;20549;-61
2022/09/17 08:51:38;;;;;;;0.00;0.00;;;14.50;99.90;;;;;;5047031;28;20536;-61
2022/09/17 08:54:07;;;;;;;0.00;0.00;;;14.80;99.90;;;;;;5041453;28;20264;-61
2022/09/17 08:56:33;;;;;;;0.00;0.00;;;15.20;99.90;;;;;;5041403;28;20668;-61
2022/09/17 08:59:21;;;;;;;0.00;0.00;;;15.50;99.90;;;;;;5036368;28;20178;-62
2022/09/17 09:02:13;;;;;;;0.00;0.00;;;15.80;99.90;;;;;;5033400;28;20573;-61
2022/09/17 09:05:01;;;;;;;0.10;0.08;;;15.80;99.90;;;;;;5044812;28;20196;-61
2022/09/17 09:07:44;;;;;;;0.00;0.00;;;15.60;99.90;;;;;;5029338;28;20265;-61
2022/09/17 09:10:17;;;;;;;0.00;0.00;;;15.70;99.90;;;;;;5050195;28;20541;-61
2022/09/17 09:12:44;;;;;;;0.00;0.00;;;15.90;99.90;;;;;;5042857;28;20204;-62
2022/09/17 09:15:43;;;;;;;0.40;0.40;;;16.00;99.90;;;;;;5036553;28;20266;-61
2022/09/17 09:18:19;;;;;;;1.92;1.48;;;16.00;99.90;;;;;;5032013;28;20189;-61
2022/09/17 09:21:00;;;;;;;0.63;0.55;;;15.90;99.90;;;;;;5041471;28;20296;-61
2022/09/17 09:23:28;;;;;;;1.00;0.68;;;15.90;99.90;;;;;;5039828;28;20213;-61
2022/09/17 09:26:09;;;;;;;0.20;0.20;;;16.00;99.90;;;;;;5046099;28;20204;-61
2022/09/17 09:28:45;;;;;;;0.00;0.00;;;15.80;99.90;;;;;;5040132;28;20177;-61
2022/09/17 09:31:31;;;;;;;0.03;0.03;;;15.70;99.90;;;;;;5033420;28;20178;-61
2022/09/17 09:33:57;;;;;;;0.00;0.00;;;15.70;99.90;;;;;;5031642;28;20265;-63
2022/09/17 09:36:27;;;;;;;0.00;0.00;;;15.70;99.90;;;;;;5035617;28;20171;-62
2022/09/17 09:39:07;;;;;;;0.00;0.00;;;;;;;;;;5031825;28;20638;-61
2022/09/17 09:41:53;;;;;;;0.00;0.00;;;;;;;;;;5046820;28;20254;-63
2022/09/17 09:44:18;;;;;;;0.00;0.00;;;15.80;99.90;;;;;;5049963;28;20181;-63
2022/09/17 09:46:54;;;;;;;0.00;0.00;;;16.10;99.90;;;;;;5044426;28;20669;-61
2022/09/17 09:49:38;;;;;;;0.00;0.00;;;15.80;99.90;;;;;;5031532;28;20224;-61
2022/09/17 09:52:22;;;;;;;0.00;0.00;;;15.80;99.90;;;;;;5031868;28;20174;-62
2022/09/17 09:55:09;;;;;;;0.00;0.00;;;15.90;99.90;;;;;;5044434;28;20243;-62
2022/09/17 09:57:51;;;;;;;0.00;0.00;;;15.70;99.90;;;;;;5046460;28;20186;-61
2022/09/17 10:00:30;;;;;;;0.00;0.00;;;;;;;;;;5033050;28;20680;-61
2022/09/17 10:03:17;;;;;;;0.00;0.00;;;15.70;99.90;;;;;;5037473;28;20667;-62
2022/09/17 10:05:52;;;;;;;0.22;0.22;;;16.50;99.90;;;;;;5051429;28;20617;-63
2022/09/17 10:08:17;;;;;;;0.03;0.03;;;16.50;99.40;;;;;;5040040;28;20681;-61
2022/09/17 10:10:54;;;;;;;0.00;0.00;;;16.60;99.90;;;;;;5036955;28;20282;-62
2022/09/17 10:13:20;;;;;;;0.00;0.00;;;16.60;98.70;;;;;;5050254;28;20185;-64
2022/09/17 10:15:46;;;;;;;0.08;0.00;;;16.40;99.90;;;;;;5040942;28;20186;-62
2022/09/17 10:18:20;;;;;;;0.52;0.35;;;16.20;99.90;;;;;;5053484;28;20173;-58
2022/09/17 10:20:56;;;;;;;0.00;0.00;;;16.10;99.90;;;;;;5051488;28;20209;-63
2022/09/17 10:23:23;;;;;;;0.00;0.00;;;16.30;99.90;;;;;;5034156;28;20205;-61
2022/09/17 10:25:51;;;;;;;0.00;0.00;;;16.20;99.90;;;;;;5042423;28;20182;-61
2022/09/17 10:28:41;;;;;;;0.00;0.00;;;16.30;99.90;;;;;;5051573;28;20323;-60
2022/09/17 10:31:09;;;;;;;0.00;0.00;;;16.40;99.90;;;;;;5040191;28;20182;-61
2022/09/17 10:33:50;;;;;;;0.32;0.32;;;17.00;99.90;;;;;;5034750;28;20307;-61
2022/09/17 10:36:16;;;;;;;0.00;0.00;;;17.20;98.90;;;;;;5039418;28;20205;-60
2022/09/17 10:38:45;;;;;;;0.00;0.00;;;17.30;99.60;;;;;;5035906;28;20542;-59
2022/09/17 10:41:21;;;;;;;0.10;0.10;;;17.10;99.30;;;;;;5046667;28;20245;-59
2022/09/17 10:43:48;;;;;;;0.00;0.00;;;16.80;98.80;;;;;;5035058;28;20174;-60
2022/09/17 10:46:25;;;;;;;0.05;0.05;;;16.50;99.90;;;;;;5034766;28;20182;-59
2022/09/17 10:49:10;;;;;;;0.00;0.00;;;16.20;99.90;;;;;;5037604;28;20280;-58
2022/09/17 10:51:36;;;;;;;0.05;0.05;;;16.10;99.90;;;;;;5036170;28;20226;-59
2022/09/17 10:54:13;;;;;;;0.00;0.00;;;15.70;99.90;;;;;;5038334;28;20174;-63
2022/09/17 10:56:45;;;;;;;0.00;0.00;;;15.60;99.90;;;;;;5054241;28;20185;-59
2022/09/17 10:59:24;;;;;;;0.00;0.00;;;15.60;99.90;;;;;;5049844;28;20167;-59
2022/09/17 11:02:18;;;;;;;0.25;0.13;;;15.80;99.90;;;;;;5034327;28;20244;-59
2022/09/17 11:05:02;;;;;;;0.00;0.00;;;15.80;99.90;;;;;;5047898;28;20189;-59
2022/09/17 11:07:49;;;;;;;0.10;0.10;;;15.70;99.90;;;;;;5046993;28;20192;-58
2022/09/17 11:10:42;;;;;;;0.00;0.00;;;15.70;99.90;;;;;;5023479;28;20633;-62
2022/09/17 11:13:32;;;;;;;0.05;0.05;;;15.70;99.90;;;;;;5046341;28;20355;-61
2022/09/17 11:16:14;;;;;;;0.03;0.03;;;15.70;99.90;;;;;;5033037;28;20193;-62
2022/09/17 11:18:44;;;;;;;0.00;0.00;;;15.70;99.90;;;;;;5034164;28;20267;-61
2022/09/17 11:21:18;;;;;;;0.00;0.00;;;15.50;99.90;;;;;;5036844;28;20245;-61
2022/09/17 11:24:04;;;;;;;0.28;0.28;;;15.40;99.90;;;;;;5035391;28;20172;-62
2022/09/17 11:26:49;;;;;;;0.00;0.00;;;15.50;99.90;;;;;;5040482;28;20205;-62
2022/09/17 11:29:21;;;;;;;0.00;0.00;;;15.50;99.90;;;;;;5047100;28;20825;-63
2022/09/17 11:31:59;;;;;;;0.00;0.00;;;15.40;99.90;;;;;;5048964;28;20192;-61
2022/09/17 11:34:27;;;;;;;0.00;0.00;;;15.40;99.90;;;;;;5043436;28;20182;-62
2022/09/17 11:36:58;;;;;;;0.05;0.05;;;15.50;99.90;;;;;;5040744;28;20181;-63
2022/09/17 11:39:54;;;;;;;0.03;0.03;;;15.70;99.90;;;;;;5041433;28;20641;-63
2022/09/17 11:43:01;;;;;;;0.05;0.05;;;16.00;99.90;;;;;;5044471;28;20217;-62
2022/09/17 11:45:38;;;;;;;0.50;0.50;;;16.40;99.90;;;;;;5037064;28;20201;-62
2022/09/17 11:48:09;;;;;;;0.63;0.30;;;16.20;99.90;;;;;;5040206;28;20268;-62
2022/09/17 11:50:42;;;;;;;0.73;0.20;;;16.20;99.90;;;;;;5046791;28;20188;-61
2022/09/17 11:53:22;;;;;;;0.25;0.25;;;15.90;99.90;;;;;;5050608;28;20387;-61
2022/09/17 11:55:56;;;;;;;0.50;0.50;;;15.80;99.90;;;;;;5038698;28;20675;-62
2022/09/17 11:58:28;;;;;;;0.00;0.00;;;15.70;99.90;;;;;;5047281;28;20227;-61
2022/09/17 12:01:01;;;;;;;0.00;0.00;;;15.40;99.90;;;;;;5050484;28;20304;-60
2022/09/17 12:03:43;;;;;;;0.03;0.03;;;15.00;99.90;;;;;;5033254;28;20309;-61
2022/09/17 12:06:14;;;;;;;0.00;0.00;;;14.90;99.90;;;;;;5037153;28;20205;-62
2022/09/17 12:09:00;;;;;;;0.00;0.00;;;14.90;99.90;;;;;;5033384;28;20514;-62
2022/09/17 12:11:57;;;;;;;0.15;0.00;;;15.40;99.90;;;;;;5033283;28;20182;-62
2022/09/17 12:14:40;;;;;;;0.40;0.40;;;15.90;99.90;;;;;;5033197;28;20197;-62
2022/09/17 12:17:12;;;;;;;0.00;0.00;;;16.60;99.90;;;;;;5033267;28;20637;-62
2022/09/17 12:19:56;;;;;;;0.00;0.00;;;16.90;99.90;;;;;;5033176;28;20580;-63
2022/09/17 12:22:41;;;;;;;0.00;0.00;;;17.00;99.90;;;;;;5036297;28;20228;-61
2022/09/17 12:25:13;;;;;;;0.00;0.00;;;17.00;99.90;;;;;;5034523;28;20709;-62
2022/09/17 12:28:17;;;;;;;0.00;0.00;;;16.80;99.90;;;;;;5035509;28;20186;-61
2022/09/17 12:30:53;;;;;;;0.00;0.00;;;16.70;99.90;;;;;;5031756;28;20528;-61
2022/09/17 12:33:30;;;;;;;0.00;0.00;;;16.50;99.90;;;;;;5041474;28;20188;-61
2022/09/17 12:36:27;;;;;;;0.00;0.00;;;16.30;99.90;;;;;;5050924;28;20220;-63
2022/09/17 12:39:20;;;;;;;0.00;0.00;;;16.20;99.90;;;;;;5042627;28;20178;-62
2022/09/17 12:42:18;;;;;;;0.00;0.00;;;16.10;99.90;;;;;;5034949;28;20220;-62
2022/09/17 12:45:09;;;;;;;0.00;0.00;;;16.10;99.90;;;;;;5038363;28;20209;-62
2022/09/17 12:48:01;;;;;;;0.00;0.00;;;16.00;99.90;;;;;;5034639;28;20170;-63
2022/09/17 12:50:55;;;;;;;0.00;0.00;;;16.30;99.90;;;;;;5043349;28;20549;-63
2022/09/17 12:53:42;;;;;;;0.00;0.00;;;16.20;99.90;;;;;;5033355;28;20178;-64
2022/09/17 12:56:26;;;;;;;0.00;0.00;;;16.30;99.90;;;;;;5034732;28;20186;-63
2022/09/17 12:59:11;;;;;;;0.00;0.00;;;16.30;99.90;;;;;;5033387;28;20173;-63
2022/09/17 13:02:01;;;;;;;0.00;0.00;;;16.60;99.90;;;;;;5034206;28;20212;-63
2022/09/17 13:04:38;;;;;;;0.10;0.00;;;16.70;99.10;;;;;;5049782;28;20191;-63
2022/09/17 13:07:21;;;;;;;0.00;0.00;;;16.40;98.60;;;;;;5050575;28;20215;-63
2022/09/17 13:10:01;;;;;;;0.00;0.00;;;16.30;99.70;;;;;;5050420;28;20177;-64
2022/09/17 13:12:43;;;;;;;0.17;0.17;;;16.30;99.00;;;;;;5043744;28;20177;-63
2022/09/17 13:15:27;;;;;;;0.65;0.30;;;16.30;99.90;;;;;;5033807;28;20268;-63
2022/09/17 13:18:10;;;;;;;1.75;0.77;;;16.60;99.90;;;;;;5050653;28;20652;-63
2022/09/17 13:20:52;;;;;;;0.30;0.30;;;17.00;99.40;;;;;;5040104;28;20209;-63
2022/09/17 13:23:39;;;;;;;0.15;0.15;;;16.90;97.70;;;;;;5037604;28;20190;-63